createdAt,value
2019-05-10T00:00:07.332Z,5.53
2019-05-10T00:01:00.727Z,6.33
2019-05-10T00:01:53.679Z,5.20
2019-05-10T00:02:46.723Z,5.73
2019-05-10T00:03:39.570Z,5.10
2019-05-10T00:04:32.790Z,5.43
2019-05-10T00:05:25.581Z,5.70
2019-05-10T00:06:18.537Z,5.27
2019-05-10T00:07:12.996Z,5.30
2019-05-10T00:08:06.387Z,7.50
2019-05-10T00:08:47.039Z,6.87
2019-05-10T00:09:21.902Z,5.13
2019-05-10T00:09:56.594Z,5.53
2019-05-10T00:10:31.350Z,4.60
2019-05-10T00:11:35.284Z,5.20
2019-05-10T00:12:20.121Z,5.50
2019-05-10T00:13:08.008Z,5.53
2019-05-10T00:13:47.348Z,6.50
2019-05-10T00:14:32.691Z,5.40
2019-05-10T00:15:08.669Z,6.40
2019-05-10T00:15:44.553Z,5.40
2019-05-10T00:16:20.408Z,6.20
2019-05-10T00:17:00.223Z,6.20
2019-05-10T00:17:36.311Z,6.83
2019-05-10T00:18:12.797Z,6.60
2019-05-10T00:18:48.717Z,5.97
2019-05-10T00:19:25.012Z,5.70
2019-05-10T00:20:00.901Z,6.97
2019-05-10T00:20:36.766Z,5.57
2019-05-10T00:21:12.667Z,5.43
2019-05-10T00:21:48.640Z,5.00
2019-05-10T00:22:24.567Z,5.90
2019-05-10T00:23:03.283Z,6.13
2019-05-10T00:23:39.544Z,6.30
2019-05-10T00:24:15.455Z,5.10
2019-05-10T00:25:03.236Z,6.07
2019-05-10T00:25:30.427Z,5.07
2019-05-10T00:26:06.507Z,5.70
2019-05-10T00:26:42.477Z,4.87
2019-05-10T00:27:18.464Z,5.30
2019-05-10T00:27:54.580Z,5.33
2019-05-10T00:28:30.526Z,5.20
2019-05-10T00:29:06.751Z,4.70
2019-05-10T00:29:42.667Z,3.87
2019-05-10T00:30:18.536Z,5.00
2019-05-10T00:30:54.496Z,3.70
2019-05-10T00:31:30.450Z,6.87
2019-05-10T00:32:06.381Z,4.03
2019-05-10T00:32:42.312Z,4.90
2019-05-10T00:33:18.281Z,3.90
2019-05-10T00:33:54.267Z,5.07
2019-05-10T00:34:30.258Z,4.70
2019-05-10T00:35:06.389Z,4.43
2019-05-10T00:35:42.233Z,4.50
2019-05-10T00:36:18.105Z,4.00
2019-05-10T00:36:54.036Z,4.57
2019-05-10T00:37:29.867Z,4.83
2019-05-10T00:38:05.772Z,4.47
2019-05-10T00:38:41.584Z,4.53
2019-05-10T00:39:19.521Z,4.43
2019-05-10T00:39:55.668Z,4.87
2019-05-10T00:40:31.632Z,5.10
2019-05-10T00:41:07.442Z,3.80
2019-05-10T00:41:44.768Z,4.80
2019-05-10T00:42:20.596Z,4.30
2019-05-10T00:42:56.450Z,4.43
2019-05-10T00:43:32.273Z,4.10
2019-05-10T00:44:08.147Z,4.97
2019-05-10T00:44:43.944Z,4.70
2019-05-10T00:45:19.775Z,4.60
2019-05-10T00:45:55.640Z,4.73
2019-05-10T00:46:31.497Z,5.23
2019-05-10T00:47:07.559Z,5.00
2019-05-10T00:47:43.428Z,5.10
2019-05-10T00:48:23.088Z,4.63
2019-05-10T00:48:59.089Z,4.37
2019-05-10T00:49:34.947Z,4.47
2019-05-10T00:50:11.461Z,4.53
2019-05-10T00:50:47.530Z,5.17
2019-05-10T00:51:23.381Z,4.50
2019-05-10T00:51:59.224Z,5.30
2019-05-10T00:52:35.091Z,4.13
2019-05-10T00:53:10.999Z,6.13
2019-05-10T00:53:46.860Z,5.40
2019-05-10T00:54:22.735Z,4.30
2019-05-10T00:54:58.625Z,3.87
2019-05-10T00:55:34.535Z,4.77
2019-05-10T00:56:13.153Z,5.67
2019-05-10T00:56:49.024Z,5.10
2019-05-10T00:57:24.916Z,5.37
2019-05-10T00:58:00.746Z,5.20
2019-05-10T00:58:36.561Z,5.80
2019-05-10T00:59:12.457Z,4.50
2019-05-10T00:59:48.354Z,5.30
2019-05-10T01:00:24.189Z,6.10
2019-05-10T01:01:00.059Z,4.40
2019-05-10T01:01:35.924Z,5.00
2019-05-10T01:02:11.835Z,4.80
2019-05-10T01:02:47.821Z,5.40
2019-05-10T01:03:23.651Z,5.40
2019-05-10T01:04:01.437Z,5.13
2019-05-10T01:04:37.336Z,5.67
2019-05-10T01:05:17.659Z,4.80
2019-05-10T01:05:53.493Z,5.63
2019-05-10T01:06:29.336Z,4.70
2019-05-10T01:07:05.283Z,4.90
2019-05-10T01:07:41.153Z,5.03
2019-05-10T01:08:17.062Z,5.53
2019-05-10T01:08:52.899Z,4.47
2019-05-10T01:09:28.746Z,5.37
2019-05-10T01:10:04.737Z,5.60
2019-05-10T01:10:40.595Z,4.40
2019-05-10T01:11:16.438Z,3.83
2019-05-10T01:11:52.310Z,4.57
2019-05-10T01:12:28.368Z,5.07
2019-05-10T01:13:04.218Z,4.70
2019-05-10T01:13:41.425Z,5.60
2019-05-10T01:14:17.255Z,5.00
2019-05-10T01:14:53.085Z,4.57
2019-05-10T01:15:28.956Z,5.40
2019-05-10T01:16:04.927Z,4.30
2019-05-10T01:16:40.763Z,4.60
2019-05-10T01:17:16.592Z,4.60
2019-05-10T01:17:52.456Z,4.83
2019-05-10T01:18:28.292Z,5.40
2019-05-10T01:19:04.217Z,3.80
2019-05-10T01:19:40.052Z,5.67
2019-05-10T01:20:16.091Z,5.10
2019-05-10T01:20:51.951Z,4.83
2019-05-10T01:21:27.810Z,5.20
2019-05-10T01:22:03.628Z,5.67
2019-05-10T01:22:39.490Z,4.70
2019-05-10T01:23:16.692Z,4.50
2019-05-10T01:23:52.493Z,4.77
2019-05-10T01:24:29.150Z,4.73
2019-05-10T01:25:05.098Z,4.50
2019-05-10T01:25:40.937Z,5.13
2019-05-10T01:26:16.814Z,5.40
2019-05-10T01:26:52.662Z,5.90
2019-05-10T01:27:28.494Z,6.03
2019-05-10T01:28:04.334Z,5.20
2019-05-10T01:28:40.168Z,5.40
2019-05-10T01:29:16.047Z,4.83
2019-05-10T01:29:51.922Z,4.83
2019-05-10T01:30:27.897Z,4.90
2019-05-10T01:31:03.927Z,5.07
2019-05-10T01:31:39.863Z,5.73
2019-05-10T01:32:15.950Z,5.00
2019-05-10T01:32:51.981Z,5.30
2019-05-10T01:33:27.921Z,5.10
2019-05-10T01:34:03.905Z,4.53
2019-05-10T01:34:39.758Z,5.00
2019-05-10T01:35:16.096Z,5.00
2019-05-10T01:35:52.065Z,5.47
2019-05-10T01:36:27.891Z,5.10
2019-05-10T01:37:03.844Z,5.90
2019-05-10T01:37:39.689Z,6.17
2019-05-10T01:38:15.603Z,6.43
2019-05-10T01:38:51.571Z,5.43
2019-05-10T01:39:27.475Z,5.10
2019-05-10T01:40:03.754Z,6.27
2019-05-10T01:40:39.839Z,4.27
2019-05-10T01:41:15.663Z,5.27
2019-05-10T01:41:51.552Z,4.90
2019-05-10T01:42:27.429Z,4.80
2019-05-10T01:43:03.290Z,5.37
2019-05-10T01:43:39.107Z,5.87
2019-05-10T01:44:14.977Z,5.50
2019-05-10T01:44:50.828Z,6.13
2019-05-10T01:45:26.675Z,6.20
2019-05-10T01:46:02.514Z,6.97
2019-05-10T01:46:38.518Z,5.80
2019-05-10T01:47:14.403Z,4.90
2019-05-10T01:47:50.233Z,6.03
2019-05-10T01:48:26.059Z,6.37
2019-05-10T01:49:01.881Z,5.23
2019-05-10T01:49:37.703Z,5.57
2019-05-10T01:50:13.556Z,5.40
2019-05-10T01:50:49.378Z,5.00
2019-05-10T01:51:27.834Z,6.00
2019-05-10T01:52:03.005Z,5.10
2019-05-10T01:52:38.894Z,5.33
2019-05-10T01:53:17.226Z,4.50
2019-05-10T01:53:53.040Z,4.77
2019-05-10T01:54:28.943Z,4.87
2019-05-10T01:55:05.155Z,6.20
2019-05-10T01:55:51.654Z,5.53
2019-05-10T01:56:18.683Z,5.67
2019-05-10T01:56:54.752Z,5.37
2019-05-10T01:57:30.636Z,4.80
2019-05-10T01:58:06.529Z,4.93
2019-05-10T01:58:42.391Z,5.93
2019-05-10T01:59:19.956Z,5.57
2019-05-10T01:59:55.836Z,6.00
2019-05-10T02:00:31.696Z,5.23
2019-05-10T02:01:07.549Z,4.90
2019-05-10T02:01:43.501Z,4.50
2019-05-10T02:02:19.382Z,4.87
2019-05-10T02:02:55.210Z,4.50
2019-05-10T02:03:31.088Z,4.50
2019-05-10T02:04:08.340Z,5.17
2019-05-10T02:04:44.539Z,4.30
2019-05-10T02:05:20.552Z,5.07
2019-05-10T02:05:56.372Z,4.60
2019-05-10T02:06:32.222Z,4.93
2019-05-10T02:07:08.194Z,6.13
2019-05-10T02:07:44.036Z,5.73
2019-05-10T02:08:19.923Z,6.10
2019-05-10T02:08:55.878Z,4.63
2019-05-10T02:09:33.694Z,5.07
2019-05-10T02:10:09.674Z,5.27
2019-05-10T02:10:45.543Z,5.53
2019-05-10T02:11:21.507Z,4.43
2019-05-10T02:11:57.359Z,5.20
2019-05-10T02:12:33.219Z,4.70
2019-05-10T02:13:09.102Z,5.10
2019-05-10T02:13:45.092Z,4.90
2019-05-10T02:14:23.840Z,5.13
2019-05-10T02:14:59.713Z,4.90
2019-05-10T02:15:35.558Z,4.50
2019-05-10T02:16:11.365Z,4.80
2019-05-10T02:16:47.265Z,5.10
2019-05-10T02:17:24.244Z,5.30
2019-05-10T02:18:00.155Z,4.17
2019-05-10T02:18:36.026Z,5.00
2019-05-10T02:19:11.880Z,4.70
2019-05-10T02:19:47.758Z,4.43
2019-05-10T02:20:23.619Z,4.90
2019-05-10T02:20:59.512Z,5.60
2019-05-10T02:21:35.338Z,4.40
2019-05-10T02:22:11.217Z,5.43
2019-05-10T02:22:47.080Z,4.80
2019-05-10T02:23:22.902Z,4.43
2019-05-10T02:23:58.801Z,4.23
2019-05-10T02:24:36.799Z,5.37
2019-05-10T02:25:13.137Z,5.20
2019-05-10T02:25:48.942Z,5.57
2019-05-10T02:26:24.788Z,5.17
2019-05-10T02:27:00.647Z,4.47
2019-05-10T02:27:36.468Z,4.00
2019-05-10T02:28:12.335Z,4.50
2019-05-10T02:28:48.298Z,5.63
2019-05-10T02:29:24.104Z,5.10
2019-05-10T02:29:59.939Z,5.07
2019-05-10T02:30:35.775Z,5.20
2019-05-10T02:31:11.607Z,4.50
2019-05-10T02:31:47.466Z,5.70
2019-05-10T02:32:23.362Z,4.80
2019-05-10T02:32:59.243Z,4.57
2019-05-10T02:33:35.146Z,5.83
2019-05-10T02:34:11.018Z,4.90
2019-05-10T02:34:48.262Z,4.53
2019-05-10T02:35:24.085Z,5.00
2019-05-10T02:35:59.942Z,4.80
2019-05-10T02:36:36.328Z,5.00
2019-05-10T02:37:12.216Z,4.00
2019-05-10T02:37:48.112Z,4.90
2019-05-10T02:38:24.185Z,5.17
2019-05-10T02:39:00.081Z,4.80
2019-05-10T02:39:36.068Z,5.00
2019-05-10T02:40:11.953Z,5.90
2019-05-10T02:40:47.986Z,4.73
2019-05-10T02:41:23.824Z,4.87
2019-05-10T02:41:59.978Z,5.17
2019-05-10T02:42:36.112Z,4.13
2019-05-10T02:43:12.070Z,4.70
2019-05-10T02:43:48.007Z,4.27
2019-05-10T02:44:23.869Z,4.40
2019-05-10T02:44:59.853Z,4.83
2019-05-10T02:45:35.737Z,4.20
2019-05-10T02:46:11.691Z,4.80
2019-05-10T02:46:47.530Z,5.03
2019-05-10T02:47:23.465Z,4.93
2019-05-10T02:47:59.332Z,4.27
2019-05-10T02:48:36.678Z,5.00
2019-05-10T02:49:12.525Z,4.77
2019-05-10T02:49:48.343Z,4.13
2019-05-10T02:50:24.326Z,5.00
2019-05-10T02:51:00.266Z,4.40
2019-05-10T02:51:36.095Z,4.60
2019-05-10T02:52:12.056Z,4.60
2019-05-10T02:52:47.929Z,4.30
2019-05-10T02:53:23.888Z,4.00
2019-05-10T02:53:59.711Z,3.40
2019-05-10T02:54:35.641Z,2.70
2019-05-10T02:55:12.940Z,3.20
2019-05-10T02:55:49.093Z,3.93
2019-05-10T02:56:30.816Z,3.97
2019-05-10T02:57:04.473Z,2.93
2019-05-10T02:57:40.686Z,3.70
2019-05-10T02:58:16.728Z,4.23
2019-05-10T02:58:53.497Z,3.17
2019-05-10T02:59:29.665Z,4.03
2019-05-10T03:00:06.031Z,3.10
2019-05-10T03:00:42.895Z,3.90
2019-05-10T03:01:20.457Z,3.47
2019-05-10T03:01:58.241Z,3.13
2019-05-10T03:02:34.721Z,3.00
2019-05-10T03:03:10.880Z,3.30
2019-05-10T03:03:47.436Z,3.37
2019-05-10T03:04:23.992Z,3.63
2019-05-10T03:05:01.693Z,3.57
2019-05-10T03:05:38.884Z,4.63
2019-05-10T03:06:16.907Z,4.10
2019-05-10T03:06:57.226Z,3.57
2019-05-10T03:07:37.136Z,3.97
2019-05-10T03:08:16.203Z,4.07
2019-05-10T03:08:53.722Z,3.10
2019-05-10T03:09:31.093Z,3.97
2019-05-10T03:10:07.632Z,4.80
2019-05-10T03:10:49.495Z,4.70
2019-05-10T03:11:25.404Z,4.67
2019-05-10T03:12:08.503Z,4.33
2019-05-10T03:12:44.327Z,5.30
2019-05-10T03:13:21.702Z,4.60
2019-05-10T03:13:59.178Z,5.10
2019-05-10T03:14:41.684Z,5.13
2019-05-10T03:15:17.865Z,5.73
2019-05-10T03:15:55.325Z,4.43
2019-05-10T03:16:32.780Z,7.23
2019-05-10T03:17:09.641Z,4.70
2019-05-10T03:17:45.562Z,5.33
2019-05-10T03:18:22.284Z,5.30
2019-05-10T03:18:58.507Z,6.37
2019-05-10T03:19:34.375Z,5.10
2019-05-10T03:20:10.391Z,5.23
2019-05-10T03:20:47.927Z,4.13
2019-05-10T03:21:24.847Z,4.67
2019-05-10T03:22:07.640Z,4.87
2019-05-10T03:22:44.416Z,3.60
2019-05-10T03:23:21.539Z,4.73
2019-05-10T03:23:57.490Z,4.83
2019-05-10T03:24:33.361Z,4.30
2019-05-10T03:25:09.392Z,4.50
2019-05-10T03:25:45.452Z,4.23
2019-05-10T03:26:21.920Z,3.67
2019-05-10T03:26:57.820Z,4.20
2019-05-10T03:27:33.644Z,4.27
2019-05-10T03:28:09.507Z,3.93
2019-05-10T03:28:45.444Z,3.43
2019-05-10T03:29:21.272Z,3.70
2019-05-10T03:29:57.135Z,3.60
2019-05-10T03:30:33.042Z,3.60
2019-05-10T03:31:08.931Z,3.53
2019-05-10T03:31:46.048Z,4.10
2019-05-10T03:32:21.995Z,3.80
2019-05-10T03:32:57.856Z,3.50
2019-05-10T03:33:33.712Z,3.77
2019-05-10T03:34:09.567Z,4.00
2019-05-10T03:34:45.467Z,3.73
2019-05-10T03:35:21.426Z,4.00
2019-05-10T03:35:57.354Z,3.70
2019-05-10T03:36:33.428Z,4.77
2019-05-10T03:37:09.385Z,4.30
2019-05-10T03:37:47.364Z,3.80
2019-05-10T03:38:23.597Z,3.60
2019-05-10T03:38:59.472Z,3.73
2019-05-10T03:39:35.331Z,4.30
2019-05-10T03:40:11.284Z,3.37
2019-05-10T03:40:48.059Z,4.40
2019-05-10T03:41:24.244Z,3.40
2019-05-10T03:42:00.098Z,4.30
2019-05-10T03:42:36.055Z,4.03
2019-05-10T03:43:11.851Z,3.47
2019-05-10T03:43:47.742Z,4.10
2019-05-10T03:44:23.741Z,3.90
2019-05-10T03:44:59.569Z,3.07
2019-05-10T03:45:35.404Z,3.53
2019-05-10T03:46:11.277Z,3.17
2019-05-10T03:46:47.144Z,3.77
2019-05-10T03:47:22.976Z,3.80
2019-05-10T03:47:58.858Z,3.20
2019-05-10T03:48:34.687Z,3.70
2019-05-10T03:49:10.561Z,3.10
2019-05-10T03:49:46.379Z,3.87
2019-05-10T03:50:22.254Z,3.90
2019-05-10T03:50:58.225Z,3.30
2019-05-10T03:51:34.102Z,3.80
2019-05-10T03:52:10.175Z,4.30
2019-05-10T03:52:46.014Z,3.43
2019-05-10T03:53:21.853Z,4.33
2019-05-10T03:53:57.738Z,3.90
2019-05-10T03:54:33.608Z,3.23
2019-05-10T03:55:09.564Z,3.90
2019-05-10T03:55:45.378Z,4.00
2019-05-10T03:56:21.242Z,4.10
2019-05-10T03:57:12.451Z,5.17
2019-05-10T03:57:34.798Z,4.07
2019-05-10T03:58:10.846Z,4.03
2019-05-10T03:58:46.698Z,4.30
2019-05-10T03:59:22.558Z,3.67
2019-05-10T03:59:58.554Z,3.50
2019-05-10T04:00:34.407Z,3.40
2019-05-10T04:01:11.566Z,3.57
2019-05-10T04:01:47.396Z,4.10
2019-05-10T04:02:23.372Z,3.30
2019-05-10T04:03:03.222Z,3.50
2019-05-10T04:03:40.330Z,4.60
2019-05-10T04:04:16.251Z,4.30
2019-05-10T04:04:52.129Z,4.10
2019-05-10T04:05:28.028Z,3.60
2019-05-10T04:06:03.866Z,3.60
2019-05-10T04:06:39.698Z,4.53
2019-05-10T04:07:16.084Z,3.80
2019-05-10T04:07:51.965Z,3.53
2019-05-10T04:08:27.841Z,3.83
2019-05-10T04:09:04.180Z,3.90
2019-05-10T04:09:40.041Z,3.90
2019-05-10T04:10:20.293Z,3.70
2019-05-10T04:10:55.851Z,3.43
2019-05-10T04:11:31.708Z,3.27
2019-05-10T04:12:07.618Z,3.93
2019-05-10T04:12:43.490Z,4.47
2019-05-10T04:13:19.425Z,3.93
2019-05-10T04:13:55.360Z,4.00
2019-05-10T04:14:31.260Z,4.63
2019-05-10T04:15:07.932Z,4.23
2019-05-10T04:15:43.789Z,4.00
2019-05-10T04:16:20.191Z,3.70
2019-05-10T04:16:56.108Z,4.80
2019-05-10T04:17:31.946Z,3.90
2019-05-10T04:18:07.782Z,4.03
2019-05-10T04:18:43.635Z,3.67
2019-05-10T04:19:19.481Z,3.70
2019-05-10T04:19:55.335Z,4.07
2019-05-10T04:20:31.247Z,4.67
2019-05-10T04:21:07.156Z,4.00
2019-05-10T04:21:43.003Z,3.70
2019-05-10T04:22:18.867Z,3.63
2019-05-10T04:22:54.727Z,3.90
2019-05-10T04:23:30.572Z,4.07
2019-05-10T04:24:06.509Z,4.63
2019-05-10T04:24:42.383Z,3.60
2019-05-10T04:25:18.704Z,5.10
2019-05-10T04:25:54.514Z,4.67
2019-05-10T04:26:30.478Z,4.30
2019-05-10T04:27:06.330Z,4.03
2019-05-10T04:27:42.296Z,4.50
2019-05-10T04:28:18.182Z,4.30
2019-05-10T04:28:54.076Z,3.67
2019-05-10T04:29:30.001Z,3.37
2019-05-10T04:30:05.962Z,5.33
2019-05-10T04:30:41.802Z,4.20
2019-05-10T04:31:18.853Z,4.10
2019-05-10T04:31:54.691Z,4.23
2019-05-10T04:32:30.627Z,4.60
2019-05-10T04:33:06.466Z,3.70
2019-05-10T04:33:42.400Z,4.90
2019-05-10T04:34:18.304Z,4.50
2019-05-10T04:34:54.181Z,4.23
2019-05-10T04:35:30.072Z,4.03
2019-05-10T04:36:05.954Z,5.10
2019-05-10T04:36:41.851Z,5.60
2019-05-10T04:37:17.695Z,4.50
2019-05-10T04:37:53.496Z,3.77
2019-05-10T04:38:29.460Z,4.20
2019-05-10T04:39:06.435Z,4.37
2019-05-10T04:39:42.255Z,3.90
2019-05-10T04:40:18.134Z,4.77
2019-05-10T04:40:54.025Z,4.13
2019-05-10T04:41:31.189Z,4.10
2019-05-10T04:42:07.056Z,3.70
2019-05-10T04:42:42.943Z,4.43
2019-05-10T04:43:18.803Z,3.80
2019-05-10T04:43:54.638Z,4.93
2019-05-10T04:44:30.609Z,3.87
2019-05-10T04:45:06.592Z,3.73
2019-05-10T04:45:44.054Z,5.10
2019-05-10T04:46:19.940Z,4.70
2019-05-10T04:46:55.815Z,5.10
2019-05-10T04:47:31.652Z,5.10
2019-05-10T04:48:07.593Z,4.90
2019-05-10T04:48:43.737Z,4.97
2019-05-10T04:49:19.594Z,5.37
2019-05-10T04:49:55.436Z,4.00
2019-05-10T04:50:31.275Z,5.10
2019-05-10T04:51:07.126Z,5.70
2019-05-10T04:51:44.371Z,4.40
2019-05-10T04:52:20.300Z,4.90
2019-05-10T04:52:56.181Z,4.40
2019-05-10T04:53:32.088Z,3.83
2019-05-10T04:54:10.602Z,4.20
2019-05-10T04:54:48.148Z,4.60
2019-05-10T04:55:24.022Z,3.83
2019-05-10T04:56:00.024Z,5.00
2019-05-10T04:56:35.936Z,4.57
2019-05-10T04:57:11.783Z,4.00
2019-05-10T04:57:51.007Z,4.90
2019-05-10T04:58:25.304Z,4.40
2019-05-10T04:59:01.326Z,5.40
2019-05-10T04:59:37.149Z,4.73
2019-05-10T05:00:13.198Z,4.73
2019-05-10T05:00:49.046Z,5.27
2019-05-10T05:01:24.859Z,4.40
2019-05-10T05:02:00.867Z,4.63
2019-05-10T05:02:36.842Z,3.63
2019-05-10T05:03:12.650Z,4.50
2019-05-10T05:03:48.619Z,4.73
2019-05-10T05:04:24.488Z,5.10
2019-05-10T05:05:00.379Z,4.80
2019-05-10T05:05:36.335Z,5.13
2019-05-10T05:06:12.214Z,4.73
2019-05-10T05:06:48.286Z,4.10
2019-05-10T05:07:24.153Z,5.60
2019-05-10T05:08:06.401Z,5.27
2019-05-10T05:08:42.143Z,4.90
2019-05-10T05:09:21.006Z,5.23
2019-05-10T05:09:56.889Z,4.43
2019-05-10T05:10:32.728Z,5.13
2019-05-10T05:11:08.581Z,5.77
2019-05-10T05:11:44.435Z,4.93
2019-05-10T05:12:20.370Z,4.70
2019-05-10T05:12:56.199Z,5.10
2019-05-10T05:13:32.022Z,5.67
2019-05-10T05:14:09.699Z,5.73
2019-05-10T05:14:45.691Z,5.43
2019-05-10T05:15:21.531Z,5.47
2019-05-10T05:15:57.479Z,5.23
2019-05-10T05:16:33.344Z,5.80
2019-05-10T05:17:09.317Z,6.33
2019-05-10T05:17:45.200Z,5.20
2019-05-10T05:18:21.058Z,5.73
2019-05-10T05:18:56.887Z,4.87
2019-05-10T05:19:32.779Z,5.57
2019-05-10T05:20:08.632Z,6.13
2019-05-10T05:20:44.505Z,6.10
2019-05-10T05:21:20.329Z,4.63
2019-05-10T05:21:56.182Z,4.97
2019-05-10T05:22:32.093Z,5.30
2019-05-10T05:23:07.963Z,6.97
2019-05-10T05:23:43.867Z,6.10
2019-05-10T05:24:23.049Z,4.90
2019-05-10T05:25:01.246Z,6.80
2019-05-10T05:25:40.087Z,5.93
2019-05-10T05:26:12.868Z,6.67
2019-05-10T05:26:48.749Z,5.77
2019-05-10T05:27:24.611Z,5.00
2019-05-10T05:28:07.848Z,5.90
2019-05-10T05:28:38.232Z,6.13
2019-05-10T05:29:14.137Z,6.30
2019-05-10T05:29:49.982Z,6.40
2019-05-10T05:30:26.015Z,6.30
2019-05-10T05:31:01.947Z,5.90
2019-05-10T05:31:37.822Z,5.93
2019-05-10T05:32:15.864Z,6.67
2019-05-10T05:32:51.701Z,5.90
2019-05-10T05:33:27.585Z,5.97
2019-05-10T05:34:04.966Z,5.73
2019-05-10T05:34:41.368Z,6.30
2019-05-10T05:35:17.216Z,6.10
2019-05-10T05:35:53.122Z,5.70
2019-05-10T05:36:29.009Z,6.63
2019-05-10T05:37:17.923Z,7.20
2019-05-10T05:37:54.026Z,7.30
2019-05-10T05:38:29.939Z,6.43
2019-05-10T05:39:07.146Z,7.00
2019-05-10T05:39:43.132Z,8.20
2019-05-10T05:40:19.200Z,6.87
2019-05-10T05:40:55.071Z,7.37
2019-05-10T05:41:31.945Z,7.43
2019-05-10T05:42:09.309Z,8.23
2019-05-10T05:42:45.230Z,8.10
2019-05-10T05:43:21.092Z,6.63
2019-05-10T05:43:56.925Z,7.20
2019-05-10T05:44:32.770Z,9.03
2019-05-10T05:45:08.970Z,7.97
2019-05-10T05:45:44.814Z,7.47
2019-05-10T05:46:20.874Z,8.13
2019-05-10T05:46:56.753Z,6.50
2019-05-10T05:47:37.511Z,7.40
2019-05-10T05:48:10.440Z,6.30
2019-05-10T05:48:46.301Z,6.03
2019-05-10T05:49:22.241Z,7.03
2019-05-10T05:49:58.086Z,6.60
2019-05-10T05:50:33.938Z,6.27
2019-05-10T05:51:09.793Z,6.87
2019-05-10T05:51:45.629Z,7.17
2019-05-10T05:52:21.509Z,6.40
2019-05-10T05:52:57.382Z,6.30
2019-05-10T05:53:35.894Z,8.33
2019-05-10T05:54:15.135Z,6.70
2019-05-10T05:54:52.997Z,6.87
2019-05-10T05:55:30.782Z,5.40
2019-05-10T05:56:12.921Z,6.87
2019-05-10T05:56:44.552Z,6.97
2019-05-10T05:57:27.177Z,7.93
2019-05-10T05:58:04.898Z,6.80
2019-05-10T05:58:43.681Z,6.20
2019-05-10T05:59:17.547Z,7.00
2019-05-10T05:59:57.544Z,6.00
2019-05-10T06:00:37.749Z,5.40
2019-05-10T06:01:11.322Z,5.43
2019-05-10T06:01:47.157Z,5.77
2019-05-10T06:02:23.025Z,6.27
2019-05-10T06:02:58.881Z,5.60
2019-05-10T06:03:37.557Z,5.73
2019-05-10T06:04:13.539Z,5.33
2019-05-10T06:04:49.556Z,4.87
2019-05-10T06:05:34.138Z,5.03
2019-05-10T06:06:15.266Z,4.83
2019-05-10T06:06:40.914Z,4.47
2019-05-10T06:07:16.783Z,5.60
2019-05-10T06:07:52.998Z,3.60
2019-05-10T06:08:30.455Z,2.60
2019-05-10T06:09:07.921Z,2.50
2019-05-10T06:09:43.818Z,2.50
2019-05-10T06:10:20.024Z,3.37
2019-05-10T06:10:59.753Z,3.40
2019-05-10T06:11:35.963Z,3.00
2019-05-10T06:12:12.763Z,3.00
2019-05-10T06:12:50.574Z,2.53
2019-05-10T06:13:30.360Z,1.80
2019-05-10T06:14:10.731Z,2.90
2019-05-10T06:14:49.228Z,3.17
2019-05-10T06:15:23.217Z,3.20
2019-05-10T06:16:00.408Z,2.93
2019-05-10T06:16:36.000Z,2.80
2019-05-10T06:17:11.862Z,2.30
2019-05-10T06:17:56.144Z,2.73
2019-05-10T06:18:25.386Z,2.57
2019-05-10T06:19:01.395Z,2.40
2019-05-10T06:19:37.223Z,3.47
2019-05-10T06:20:13.259Z,3.20
2019-05-10T06:20:49.082Z,2.80
2019-05-10T06:21:26.791Z,2.10
2019-05-10T06:22:04.644Z,2.00
2019-05-10T06:22:43.853Z,2.70
2019-05-10T06:23:17.980Z,3.30
2019-05-10T06:23:53.917Z,2.30
2019-05-10T06:24:29.776Z,2.30
2019-05-10T06:25:05.922Z,2.80
2019-05-10T06:25:43.011Z,3.23
2019-05-10T06:26:26.274Z,2.27
2019-05-10T06:26:58.265Z,2.70
2019-05-10T06:27:35.274Z,3.07
2019-05-10T06:28:25.651Z,3.07
2019-05-10T06:29:01.392Z,3.70
2019-05-10T06:29:38.192Z,3.87
2019-05-10T06:30:14.313Z,3.97
2019-05-10T06:30:50.147Z,3.73
2019-05-10T06:31:26.805Z,2.93
2019-05-10T06:32:02.746Z,3.73
2019-05-10T06:32:38.610Z,4.10
2019-05-10T06:33:14.465Z,3.67
2019-05-10T06:33:51.365Z,3.77
2019-05-10T06:34:31.926Z,4.17
2019-05-10T06:35:05.050Z,4.07
2019-05-10T06:35:41.101Z,3.50
2019-05-10T06:36:17.019Z,3.33
2019-05-10T06:36:53.188Z,3.30
2019-05-10T06:37:33.129Z,4.00
2019-05-10T06:38:09.964Z,3.47
2019-05-10T06:38:46.252Z,3.43
2019-05-10T06:39:22.111Z,4.00
2019-05-10T06:39:58.032Z,4.30
2019-05-10T06:40:41.240Z,3.60
2019-05-10T06:41:17.098Z,3.70
2019-05-10T06:41:50.029Z,3.33
2019-05-10T06:42:28.687Z,3.13
2019-05-10T06:43:07.026Z,3.57
2019-05-10T06:43:45.568Z,3.30
2019-05-10T06:44:24.917Z,3.93
2019-05-10T06:44:58.325Z,3.47
2019-05-10T06:45:34.190Z,2.73
2019-05-10T06:46:10.030Z,3.17
2019-05-10T06:46:45.872Z,2.67
2019-05-10T06:47:22.153Z,3.43
2019-05-10T06:47:58.040Z,3.10
2019-05-10T06:48:33.895Z,3.30
2019-05-10T06:49:11.002Z,2.60
2019-05-10T06:49:52.024Z,2.07
2019-05-10T06:50:29.830Z,2.50
2019-05-10T06:51:02.986Z,2.20
2019-05-10T06:51:42.725Z,1.87
2019-05-10T06:52:22.107Z,2.40
2019-05-10T06:53:00.360Z,2.70
2019-05-10T06:53:33.939Z,2.70
2019-05-10T06:54:09.779Z,2.37
2019-05-10T06:54:45.615Z,2.40
2019-05-10T06:55:21.459Z,2.30
2019-05-10T06:55:57.416Z,2.13
2019-05-10T06:56:33.252Z,2.20
2019-05-10T06:57:11.172Z,2.03
2019-05-10T06:57:50.529Z,1.77
2019-05-10T06:58:24.443Z,2.23
2019-05-10T06:59:12.306Z,1.60
2019-05-10T06:59:38.310Z,1.80
2019-05-10T07:00:14.423Z,1.97
2019-05-10T07:00:50.309Z,1.50
2019-05-10T07:01:26.214Z,1.60
2019-05-10T07:02:02.039Z,1.30
2019-05-10T07:02:38.084Z,1.87
2019-05-10T07:03:14.010Z,1.33
2019-05-10T07:03:49.923Z,1.50
2019-05-10T07:04:25.844Z,1.53
2019-05-10T07:05:01.754Z,1.90
2019-05-10T07:05:38.201Z,1.50
2019-05-10T07:06:14.135Z,0.90
2019-05-10T07:06:50.036Z,1.10
2019-05-10T07:07:43.450Z,1.00
2019-05-10T07:08:15.091Z,1.03
2019-05-10T07:08:45.806Z,1.50
2019-05-10T07:09:21.463Z,2.07
2019-05-10T07:10:09.958Z,1.30
2019-05-10T07:10:35.078Z,1.00
2019-05-10T07:11:10.933Z,1.10
2019-05-10T07:11:46.911Z,1.40
2019-05-10T07:12:23.545Z,2.13
2019-05-10T07:13:03.693Z,1.13
2019-05-10T07:13:40.355Z,0.90
2019-05-10T07:14:25.399Z,1.20
2019-05-10T07:14:57.749Z,1.03
2019-05-10T07:15:35.765Z,1.30
2019-05-10T07:16:23.913Z,1.50
2019-05-10T07:16:56.668Z,1.60
2019-05-10T07:17:30.625Z,1.50
2019-05-10T07:18:06.436Z,2.20
2019-05-10T07:18:42.518Z,1.40
2019-05-10T07:19:18.605Z,1.57
2019-05-10T07:19:55.491Z,1.67
2019-05-10T07:20:31.490Z,1.60
2019-05-10T07:21:08.773Z,2.00
2019-05-10T07:21:50.781Z,1.37
2019-05-10T07:22:26.822Z,1.60
2019-05-10T07:23:05.855Z,1.20
2019-05-10T07:23:38.958Z,1.73
2019-05-10T07:24:18.169Z,1.70
2019-05-10T07:24:57.034Z,1.20
2019-05-10T07:25:31.917Z,1.30
2019-05-10T07:26:09.773Z,1.40
2019-05-10T07:26:45.469Z,1.50
2019-05-10T07:27:21.455Z,1.23
2019-05-10T07:27:57.318Z,1.50
2019-05-10T07:28:33.187Z,1.80
2019-05-10T07:29:09.130Z,1.97
2019-05-10T07:29:46.205Z,1.67
2019-05-10T07:30:31.702Z,1.50
2019-05-10T07:31:07.519Z,1.37
2019-05-10T07:31:43.989Z,1.50
2019-05-10T07:32:22.054Z,2.20
2019-05-10T07:32:59.772Z,1.93
2019-05-10T07:33:37.335Z,1.70
2019-05-10T07:34:15.588Z,1.93
2019-05-10T07:34:58.895Z,1.80
2019-05-10T07:35:30.919Z,1.80
2019-05-10T07:36:14.321Z,1.30
2019-05-10T07:36:43.686Z,2.10
2019-05-10T07:37:19.557Z,1.40
2019-05-10T07:37:55.404Z,2.20
2019-05-10T07:38:34.746Z,1.83
2019-05-10T07:39:10.876Z,1.50
2019-05-10T07:39:47.155Z,1.63
2019-05-10T07:40:23.013Z,1.20
2019-05-10T07:40:58.946Z,1.57
2019-05-10T07:41:34.922Z,1.50
2019-05-10T07:42:11.369Z,1.30
2019-05-10T07:42:47.247Z,1.83
2019-05-10T07:43:26.328Z,2.30
2019-05-10T07:44:07.699Z,1.70
2019-05-10T07:44:41.424Z,1.90
2019-05-10T07:45:18.847Z,1.80
2019-05-10T07:45:58.838Z,1.83
2019-05-10T07:46:32.428Z,2.10
2019-05-10T07:47:08.320Z,1.27
2019-05-10T07:47:44.199Z,1.80
2019-05-10T07:48:23.023Z,1.97
2019-05-10T07:48:57.640Z,1.70
2019-05-10T07:49:33.620Z,2.20
2019-05-10T07:50:11.442Z,2.30
2019-05-10T07:50:51.595Z,2.03
2019-05-10T07:51:28.782Z,2.07
2019-05-10T07:52:04.448Z,2.37
2019-05-10T07:52:43.459Z,2.07
2019-05-10T07:53:22.760Z,1.70
2019-05-10T07:54:04.372Z,1.90
2019-05-10T07:54:37.512Z,2.03
2019-05-10T07:55:17.924Z,2.77
2019-05-10T07:55:50.539Z,2.43
2019-05-10T07:56:26.380Z,2.33
2019-05-10T07:57:02.708Z,2.67
2019-05-10T07:57:38.642Z,2.67
2019-05-10T07:58:14.494Z,2.27
2019-05-10T07:58:50.361Z,2.83
2019-05-10T07:59:30.358Z,2.70
2019-05-10T08:00:06.184Z,2.87
2019-05-10T08:00:44.298Z,2.70
2019-05-10T08:01:28.880Z,3.07
2019-05-10T08:01:58.243Z,2.87
2019-05-10T08:02:34.134Z,2.80
2019-05-10T08:03:16.087Z,2.40
2019-05-10T08:03:52.192Z,2.20
2019-05-10T08:04:29.103Z,2.00
2019-05-10T08:05:08.208Z,2.13
2019-05-10T08:05:41.413Z,2.37
2019-05-10T08:06:19.261Z,2.60
2019-05-10T08:06:54.852Z,1.23
2019-05-10T08:07:31.072Z,1.80
2019-05-10T08:08:09.401Z,1.67
2019-05-10T08:08:44.554Z,1.30